Terminal Aerodrome Forecast
Issued by NWS

Home | Current Version | Previous Version | Text Only | Print | Product List | Glossary On
Versions: 1 2 3 4 5 6 7 8 9 10 11 12 13
000
FTUS45 KRIW 200500
TAFRKS
TAF
KRKS 200527Z 2006/2106 24007KT P6SM VCSH SCT060 BKN110
     FM201400 26011KT P6SM SCT110
     FM202200 25013G21KT P6SM VCTS FEW060CB BKN090
     FM210200 23009KT P6SM VCSH SCT070 BKN110=

USA.gov is the U.S. government's official web portal to all federal, state and local government web resources and services.